Flight Track Log - Related Links

Times and Time Zones

All times are in EDT time to prevent confusion due to time zone crossing. See the TAM3196 flight status page for this flight to view local times or setup timezone preferences in your user account.


Time Position Orientation Groundspeed Altitude Reporting Facility
EDT Latitude Longitude Course Direction KTS MPH feet Rate Location/Type
Fri 04:59:00 PM -21.0087 -41.1398 48° Northeast  Level Estimated
Fri 05:00:00 PM -20.9622 -41.0865 47° Northeast  Level Estimated
Fri 05:01:00 PM -20.9157 -41.0333 47° Northeast  Level Estimated
Fri 05:02:00 PM -20.8691 -40.9801 47° Northeast  Level Estimated
Fri 05:03:00 PM -20.8226 -40.9270 47° Northeast  Level Estimated
Fri 05:04:00 PM -20.7760 -40.8738 47° Northeast  Level Estimated
Fri 05:05:00 PM -20.7294 -40.8208 47° Northeast  Level Estimated
Fri 05:06:00 PM -20.6828 -40.7677 47° Northeast  Level Estimated
Fri 05:07:00 PM -20.6362 -40.7147 47° Northeast  Level Estimated
Fri 05:08:00 PM -20.5896 -40.6617 47° Northeast  Level Estimated
Fri 05:09:00 PM -20.5429 -40.6087 47° Northeast  Level Estimated
Fri 05:10:00 PM -20.4963 -40.5558 47° Northeast  Level Estimated
Fri 05:11:00 PM -20.4496 -40.5029 47° Northeast  Level Estimated
Fri 05:12:00 PM -20.4029 -40.4500 47° Northeast  Level Estimated
Fri 05:13:00 PM -20.3561 -40.3972 47° Northeast  Level Estimated
Fri 05:14:00 PM -20.3094 -40.3444 47° Northeast  Level Estimated
Fri 05:15:00 PM -20.2627 -40.2916 47° Northeast  Level Estimated
Fri 05:16:00 PM -20.2581 -40.2864 47° Northeast  Level Estimated
Fri 05:17:00 PM -20.2581 -40.2864 13° North  Level Estimated
Fri 05:18:00 PM -20.2581 -40.2864 13° North  Level Estimated
Fri 05:19:00 PM -20.2581 -40.2864 13° North  Level Estimated
Fri 05:20:00 PM -20.2581 -40.2864 13° North  Level Estimated
Fri 05:21:00 PM -20.2581 -40.2864 13° North  Level Estimated
Fri 05:22:00 PM -20.2581 -40.2864 13° North  Level Estimated
Fri 05:23:00 PM -20.2581 -40.2864 13° North  Level Estimated
Fri 05:24:00 PM -20.2581 -40.2864 13° North  Level Estimated
Fri 05:25:00 PM -20.2581 -40.2864 13° North  Level Estimated
Fri 05:26:00 PM -20.2581 -40.2864 13° North  Level Estimated
Fri 05:27:00 PM -20.2581 -40.2864 13° North  Level Estimated
Fri 05:28:00 PM -20.2581 -40.2864 13° North  Level Estimated
Fri 05:29:00 PM -20.2581 -40.2864 13° North  Level Estimated
Fri 05:30:00 PM -20.2581 -40.2864 13° North  Level Estimated
Fri 05:31:00 PM -20.2581 -40.2864 13° North  Level Estimated

Login

Don't have an account? Register now (free) for customized features, flight alerts, and more!